sensor_id;sensor_type;location;lat;lon;timestamp;pressure;altitude;pressure_sealevel;temperature;humidity
19447;BME280;9862;49.462;11.054;2022-09-17T00:02:02;97342.13;;;13.34;100.00
19447;BME280;9862;49.462;11.054;2022-09-17T00:04:31;97345.19;;;13.26;100.00
19447;BME280;9862;49.462;11.054;2022-09-17T00:06:58;97339.28;;;13.24;100.00
19447;BME280;9862;49.462;11.054;2022-09-17T00:09:25;97337.66;;;13.23;100.00
19447;BME280;9862;49.462;11.054;2022-09-17T00:11:52;97337.16;;;13.26;100.00
19447;BME280;9862;49.462;11.054;2022-09-17T00:14:19;97343.88;;;13.28;100.00
19447;BME280;9862;49.462;11.054;2022-09-17T00:16:46;97333.75;;;13.30;100.00
19447;BME280;9862;49.462;11.054;2022-09-17T00:19:16;97331.97;;;13.36;100.00
19447;BME280;9862;49.462;11.054;2022-09-17T00:21:44;97346.06;;;13.31;100.00
19447;BME280;9862;49.462;11.054;2022-09-17T00:24:12;97334.41;;;13.21;100.00
19447;BME280;9862;49.462;11.054;2022-09-17T00:26:39;97341.34;;;13.22;100.00
19447;BME280;9862;49.462;11.054;2022-09-17T00:29:06;97342.81;;;13.12;100.00
19447;BME280;9862;49.462;11.054;2022-09-17T00:31:33;97345.53;;;13.17;100.00
19447;BME280;9862;49.462;11.054;2022-09-17T00:34:01;97342.16;;;13.05;100.00
19447;BME280;9862;49.462;11.054;2022-09-17T00:36:33;97339.94;;;13.02;100.00
19447;BME280;9862;49.462;11.054;2022-09-17T00:39:00;97332.09;;;12.96;100.00
19447;BME280;9862;49.462;11.054;2022-09-17T00:41:30;97333.38;;;12.93;100.00
19447;BME280;9862;49.462;11.054;2022-09-17T00:43:58;97329.78;;;12.71;100.00
19447;BME280;9862;49.462;11.054;2022-09-17T00:46:30;97322.50;;;12.66;100.00
19447;BME280;9862;49.462;11.054;2022-09-17T00:49:00;97320.63;;;12.67;100.00
19447;BME280;9862;49.462;11.054;2022-09-17T00:51:31;97330.63;;;12.59;100.00
19447;BME280;9862;49.462;11.054;2022-09-17T00:54:00;97331.31;;;12.67;100.00
19447;BME280;9862;49.462;11.054;2022-09-17T00:56:30;97335.34;;;12.41;100.00
19447;BME280;9862;49.462;11.054;2022-09-17T00:59:00;97327.63;;;12.16;100.00
19447;BME280;9862;49.462;11.054;2022-09-17T01:01:27;97331.13;;;12.04;100.00
19447;BME280;9862;49.462;11.054;2022-09-17T01:03:54;97324.75;;;12.06;100.00
19447;BME280;9862;49.462;11.054;2022-09-17T01:06:26;97317.44;;;12.13;100.00
19447;BME280;9862;49.462;11.054;2022-09-17T01:09:06;97322.09;;;12.06;100.00
19447;BME280;9862;49.462;11.054;2022-09-17T01:11:52;97318.00;;;12.15;100.00
19447;BME280;9862;49.462;11.054;2022-09-17T01:14:34;97319.63;;;12.16;100.00
19447;BME280;9862;49.462;11.054;2022-09-17T01:17:14;97318.13;;;12.20;100.00
19447;BME280;9862;49.462;11.054;2022-09-17T01:20:10;97330.28;;;12.16;100.00
19447;BME280;9862;49.462;11.054;2022-09-17T01:22:54;97330.91;;;12.06;100.00
19447;BME280;9862;49.462;11.054;2022-09-17T01:25:31;97335.22;;;12.07;100.00
19447;BME280;9862;49.462;11.054;2022-09-17T01:28:18;97337.03;;;12.18;100.00
19447;BME280;9862;49.462;11.054;2022-09-17T01:31:13;97341.56;;;12.06;100.00
19447;BME280;9862;49.462;11.054;2022-09-17T01:33:51;97344.25;;;11.94;100.00
19447;BME280;9862;49.462;11.054;2022-09-17T01:36:25;97342.06;;;11.91;100.00
19447;BME280;9862;49.462;11.054;2022-09-17T01:39:03;97341.25;;;12.02;100.00
19447;BME280;9862;49.462;11.054;2022-09-17T01:41:37;97338.69;;;12.08;100.00
19447;BME280;9862;49.462;11.054;2022-09-17T01:44:09;97347.25;;;12.10;100.00
19447;BME280;9862;49.462;11.054;2022-09-17T01:46:43;97346.19;;;12.22;100.00
19447;BME280;9862;49.462;11.054;2022-09-17T01:49:31;97348.59;;;12.36;100.00
19447;BME280;9862;49.462;11.054;2022-09-17T01:52:00;97356.56;;;12.47;100.00
19447;BME280;9862;49.462;11.054;2022-09-17T01:54:30;97362.34;;;12.44;100.00
19447;BME280;9862;49.462;11.054;2022-09-17T01:57:02;97355.31;;;12.38;100.00
19447;BME280;9862;49.462;11.054;2022-09-17T01:59:33;97354.53;;;12.26;100.00
19447;BME280;9862;49.462;11.054;2022-09-17T02:02:07;97353.50;;;12.27;100.00
19447;BME280;9862;49.462;11.054;2022-09-17T02:04:41;97353.59;;;12.32;100.00
19447;BME280;9862;49.462;11.054;2022-09-17T02:07:13;97360.28;;;12.35;100.00
19447;BME280;9862;49.462;11.054;2022-09-17T02:09:45;97355.56;;;12.25;100.00
19447;BME280;9862;49.462;11.054;2022-09-17T02:12:20;97359.03;;;12.25;100.00
19447;BME280;9862;49.462;11.054;2022-09-17T02:14:51;97359.78;;;12.09;100.00
19447;BME280;9862;49.462;11.054;2022-09-17T02:17:23;97359.78;;;12.09;100.00
19447;BME280;9862;49.462;11.054;2022-09-17T02:19:53;97352.94;;;12.13;100.00
19447;BME280;9862;49.462;11.054;2022-09-17T02:22:24;97353.25;;;12.28;100.00
19447;BME280;9862;49.462;11.054;2022-09-17T02:25:00;97350.47;;;12.23;100.00
19447;BME280;9862;49.462;11.054;2022-09-17T02:27:36;97355.19;;;12.33;100.00
19447;BME280;9862;49.462;11.054;2022-09-17T02:30:06;97364.47;;;12.42;100.00
19447;BME280;9862;49.462;11.054;2022-09-17T02:32:34;97367.03;;;12.37;100.00
19447;BME280;9862;49.462;11.054;2022-09-17T02:35:01;97350.25;;;12.53;100.00
19447;BME280;9862;49.462;11.054;2022-09-17T02:37:28;97348.63;;;12.52;100.00
19447;BME280;9862;49.462;11.054;2022-09-17T02:39:55;97353.03;;;12.58;100.00
19447;BME280;9862;49.462;11.054;2022-09-17T02:42:29;97355.34;;;12.67;100.00
19447;BME280;9862;49.462;11.054;2022-09-17T02:45:05;97348.84;;;12.63;100.00
19447;BME280;9862;49.462;11.054;2022-09-17T02:47:55;97347.78;;;12.64;100.00
19447;BME280;9862;49.462;11.054;2022-09-17T02:50:31;97350.00;;;12.67;100.00
19447;BME280;9862;49.462;11.054;2022-09-17T02:53:10;97351.41;;;12.57;100.00
19447;BME280;9862;49.462;11.054;2022-09-17T02:55:49;97347.75;;;12.75;100.00
19447;BME280;9862;49.462;11.054;2022-09-17T02:58:23;97347.75;;;12.75;100.00
19447;BME280;9862;49.462;11.054;2022-09-17T03:00:50;97352.66;;;12.67;100.00
19447;BME280;9862;49.462;11.054;2022-09-17T03:03:22;97352.13;;;12.81;100.00
19447;BME280;9862;49.462;11.054;2022-09-17T03:05:54;97365.72;;;12.80;100.00
19447;BME280;9862;49.462;11.054;2022-09-17T03:08:28;97353.84;;;12.59;100.00
19447;BME280;9862;49.462;11.054;2022-09-17T03:10:55;97348.50;;;12.59;100.00
19447;BME280;9862;49.462;11.054;2022-09-17T03:13:21;97338.44;;;12.49;100.00
19447;BME280;9862;49.462;11.054;2022-09-17T03:15:48;97330.72;;;12.36;100.00
19447;BME280;9862;49.462;11.054;2022-09-17T03:18:15;97319.94;;;12.31;100.00
19447;BME280;9862;49.462;11.054;2022-09-17T03:20:43;97310.91;;;12.32;100.00
19447;BME280;9862;49.462;11.054;2022-09-17T03:23:10;97334.81;;;12.27;100.00
19447;BME280;9862;49.462;11.054;2022-09-17T03:25:37;97326.91;;;12.32;100.00
19447;BME280;9862;49.462;11.054;2022-09-17T03:28:03;97334.34;;;12.30;100.00
19447;BME280;9862;49.462;11.054;2022-09-17T03:30:30;97326.38;;;12.18;100.00
19447;BME280;9862;49.462;11.054;2022-09-17T03:32:57;97325.56;;;12.18;100.00
19447;BME280;9862;49.462;11.054;2022-09-17T03:35:23;97323.22;;;12.21;100.00
19447;BME280;9862;49.462;11.054;2022-09-17T03:37:51;97324.97;;;12.27;100.00
19447;BME280;9862;49.462;11.054;2022-09-17T03:40:18;97323.66;;;12.30;100.00
19447;BME280;9862;49.462;11.054;2022-09-17T03:42:45;97323.19;;;12.33;100.00
19447;BME280;9862;49.462;11.054;2022-09-17T03:45:11;97330.53;;;12.26;100.00
19447;BME280;9862;49.462;11.054;2022-09-17T03:47:38;97330.41;;;12.21;100.00
19447;BME280;9862;49.462;11.054;2022-09-17T03:50:05;97328.78;;;12.20;100.00
19447;BME280;9862;49.462;11.054;2022-09-17T03:52:32;97331.38;;;12.03;100.00
19447;BME280;9862;49.462;11.054;2022-09-17T03:55:00;97330.00;;;12.00;100.00
19447;BME280;9862;49.462;11.054;2022-09-17T03:57:27;97327.41;;;12.06;100.00
19447;BME280;9862;49.462;11.054;2022-09-17T03:59:53;97314.56;;;12.02;100.00
19447;BME280;9862;49.462;11.054;2022-09-17T04:02:20;97324.66;;;12.00;100.00
19447;BME280;9862;49.462;11.054;2022-09-17T04:04:46;97324.88;;;12.11;100.00
19447;BME280;9862;49.462;11.054;2022-09-17T04:07:13;97313.28;;;12.17;100.00
19447;BME280;9862;49.462;11.054;2022-09-17T04:09:40;97316.72;;;12.29;100.00
19447;BME280;9862;49.462;11.054;2022-09-17T04:12:08;97327.09;;;12.42;100.00
19447;BME280;9862;49.462;11.054;2022-09-17T04:14:34;97336.63;;;12.38;100.00
19447;BME280;9862;49.462;11.054;2022-09-17T04:17:01;97332.44;;;12.42;100.00
19447;BME280;9862;49.462;11.054;2022-09-17T04:19:27;97337.59;;;12.20;100.00
19447;BME280;9862;49.462;11.054;2022-09-17T04:21:54;97322.66;;;12.19;100.00
19447;BME280;9862;49.462;11.054;2022-09-17T04:24:20;97326.00;;;12.15;100.00
19447;BME280;9862;49.462;11.054;2022-09-17T04:26:47;97315.81;;;12.12;100.00
19447;BME280;9862;49.462;11.054;2022-09-17T04:29:15;97314.69;;;12.08;100.00
19447;BME280;9862;49.462;11.054;2022-09-17T04:31:42;97311.41;;;12.17;100.00
19447;BME280;9862;49.462;11.054;2022-09-17T04:34:08;97309.22;;;12.02;100.00
19447;BME280;9862;49.462;11.054;2022-09-17T04:36:35;97312.94;;;12.01;100.00
19447;BME280;9862;49.462;11.054;2022-09-17T04:39:01;97308.78;;;11.94;100.00
19447;BME280;9862;49.462;11.054;2022-09-17T04:41:28;97302.66;;;11.93;100.00
19447;BME280;9862;49.462;11.054;2022-09-17T04:43:54;97299.41;;;11.91;100.00
19447;BME280;9862;49.462;11.054;2022-09-17T04:46:22;97301.16;;;11.86;100.00
19447;BME280;9862;49.462;11.054;2022-09-17T04:48:49;97299.19;;;11.81;100.00
19447;BME280;9862;49.462;11.054;2022-09-17T04:51:16;97288.06;;;11.84;100.00
19447;BME280;9862;49.462;11.054;2022-09-17T04:53:43;97296.78;;;11.80;100.00
19447;BME280;9862;49.462;11.054;2022-09-17T04:56:10;97301.94;;;11.86;100.00
19447;BME280;9862;49.462;11.054;2022-09-17T04:58:36;97303.81;;;11.86;100.00
19447;BME280;9862;49.462;11.054;2022-09-17T05:01:03;97303.13;;;11.90;100.00
19447;BME280;9862;49.462;11.054;2022-09-17T05:03:31;97306.16;;;11.82;100.00
19447;BME280;9862;49.462;11.054;2022-09-17T05:05:58;97306.59;;;11.79;100.00
19447;BME280;9862;49.462;11.054;2022-09-17T05:08:24;97313.88;;;11.72;100.00
19447;BME280;9862;49.462;11.054;2022-09-17T05:10:51;97314.47;;;11.74;100.00
19447;BME280;9862;49.462;11.054;2022-09-17T05:13:18;97313.78;;;11.79;100.00
19447;BME280;9862;49.462;11.054;2022-09-17T05:15:44;97321.34;;;11.82;100.00
19447;BME280;9862;49.462;11.054;2022-09-17T05:18:11;97325.63;;;11.83;100.00
19447;BME280;9862;49.462;11.054;2022-09-17T05:20:39;97312.28;;;11.83;100.00
19447;BME280;9862;49.462;11.054;2022-09-17T05:23:06;97323.66;;;11.90;100.00
19447;BME280;9862;49.462;11.054;2022-09-17T05:25:33;97325.84;;;11.93;100.00
19447;BME280;9862;49.462;11.054;2022-09-17T05:28:00;97329.06;;;11.95;100.00
19447;BME280;9862;49.462;11.054;2022-09-17T05:30:26;97320.47;;;12.04;100.00
19447;BME280;9862;49.462;11.054;2022-09-17T05:32:59;97328.47;;;12.04;100.00
19447;BME280;9862;49.462;11.054;2022-09-17T05:35:26;97324.31;;;12.09;100.00
19447;BME280;9862;49.462;11.054;2022-09-17T05:37:57;97316.97;;;12.16;100.00
19447;BME280;9862;49.462;11.054;2022-09-17T05:40:24;97322.78;;;12.13;100.00
19447;BME280;9862;49.462;11.054;2022-09-17T05:42:51;97311.69;;;11.92;100.00
19447;BME280;9862;49.462;11.054;2022-09-17T05:45:17;97315.63;;;11.78;100.00
19447;BME280;9862;49.462;11.054;2022-09-17T05:47:44;97319.47;;;11.70;100.00
19447;BME280;9862;49.462;11.054;2022-09-17T05:50:10;97308.59;;;11.49;100.00
19447;BME280;9862;49.462;11.054;2022-09-17T05:52:37;97312.06;;;11.49;100.00
19447;BME280;9862;49.462;11.054;2022-09-17T05:55:06;97300.47;;;11.43;100.00
19447;BME280;9862;49.462;11.054;2022-09-17T05:57:33;97310.31;;;11.55;100.00
19447;BME280;9862;49.462;11.054;2022-09-17T06:00:00;97314.59;;;11.44;100.00
19447;BME280;9862;49.462;11.054;2022-09-17T06:02:26;97317.84;;;11.34;100.00
19447;BME280;9862;49.462;11.054;2022-09-17T06:04:53;97307.41;;;11.33;100.00
19447;BME280;9862;49.462;11.054;2022-09-17T06:07:20;97309.75;;;11.41;100.00
19447;BME280;9862;49.462;11.054;2022-09-17T06:09:46;97307.66;;;11.43;100.00
19447;BME280;9862;49.462;11.054;2022-09-17T06:12:15;97298.03;;;11.54;100.00
19447;BME280;9862;49.462;11.054;2022-09-17T06:14:41;97300.56;;;11.72;100.00
19447;BME280;9862;49.462;11.054;2022-09-17T06:17:09;97303.22;;;11.72;100.00
19447;BME280;9862;49.462;11.054;2022-09-17T06:19:36;97311.31;;;11.77;100.00
19447;BME280;9862;49.462;11.054;2022-09-17T06:22:03;97306.22;;;11.75;100.00
19447;BME280;9862;49.462;11.054;2022-09-17T06:24:30;97307.75;;;11.83;100.00
19447;BME280;9862;49.462;11.054;2022-09-17T06:26:57;97304.41;;;11.88;100.00
19447;BME280;9862;49.462;11.054;2022-09-17T06:29:25;97309.38;;;11.84;100.00
19447;BME280;9862;49.462;11.054;2022-09-17T06:31:52;97313.31;;;11.70;100.00
19447;BME280;9862;49.462;11.054;2022-09-17T06:34:18;97318.66;;;11.70;100.00
19447;BME280;9862;49.462;11.054;2022-09-17T06:36:45;97314.03;;;11.42;100.00
19447;BME280;9862;49.462;11.054;2022-09-17T06:39:13;97317.94;;;11.28;100.00
19447;BME280;9862;49.462;11.054;2022-09-17T06:41:41;97317.03;;;11.22;100.00
19447;BME280;9862;49.462;11.054;2022-09-17T06:44:08;97307.19;;;11.23;100.00
19447;BME280;9862;49.462;11.054;2022-09-17T06:46:36;97310.50;;;11.18;100.00
19447;BME280;9862;49.462;11.054;2022-09-17T06:49:03;97311.13;;;11.20;100.00
19447;BME280;9862;49.462;11.054;2022-09-17T06:51:29;97311.78;;;11.04;100.00
19447;BME280;9862;49.462;11.054;2022-09-17T06:53:56;97298.22;;;10.94;100.00
19447;BME280;9862;49.462;11.054;2022-09-17T06:56:23;97295.31;;;10.95;100.00
19447;BME280;9862;49.462;11.054;2022-09-17T06:58:50;97293.00;;;10.87;100.00
19447;BME280;9862;49.462;11.054;2022-09-17T07:01:17;97300.75;;;10.88;100.00
19447;BME280;9862;49.462;11.054;2022-09-17T07:03:45;97295.53;;;10.82;100.00
19447;BME280;9862;49.462;11.054;2022-09-17T07:06:14;97297.34;;;10.70;100.00
19447;BME280;9862;49.462;11.054;2022-09-17T07:08:40;97289.25;;;10.65;100.00
19447;BME280;9862;49.462;11.054;2022-09-17T07:11:07;97290.78;;;10.72;100.00
19447;BME280;9862;49.462;11.054;2022-09-17T07:13:34;97282.31;;;10.64;100.00
19447;BME280;9862;49.462;11.054;2022-09-17T07:16:02;97296.66;;;10.63;100.00
19447;BME280;9862;49.462;11.054;2022-09-17T07:18:29;97291.13;;;10.46;100.00
19447;BME280;9862;49.462;11.054;2022-09-17T07:20:58;97284.06;;;10.40;100.00
19447;BME280;9862;49.462;11.054;2022-09-17T07:23:27;97282.31;;;10.34;100.00
19447;BME280;9862;49.462;11.054;2022-09-17T07:25:55;97269.13;;;10.39;100.00
19447;BME280;9862;49.462;11.054;2022-09-17T07:28:23;97272.75;;;10.44;100.00
19447;BME280;9862;49.462;11.054;2022-09-17T07:30:51;97268.47;;;10.43;100.00
19447;BME280;9862;49.462;11.054;2022-09-17T07:33:21;97274.19;;;10.28;100.00
19447;BME280;9862;49.462;11.054;2022-09-17T07:35:52;97261.72;;;10.41;100.00
19447;BME280;9862;49.462;11.054;2022-09-17T07:38:20;97264.09;;;10.49;100.00
19447;BME280;9862;49.462;11.054;2022-09-17T07:40:55;97272.31;;;10.59;100.00
19447;BME280;9862;49.462;11.054;2022-09-17T07:43:23;97268.66;;;10.72;100.00
19447;BME280;9862;49.462;11.054;2022-09-17T07:45:50;97270.72;;;10.70;100.00
19447;BME280;9862;49.462;11.054;2022-09-17T07:48:17;97282.91;;;10.77;100.00
19447;BME280;9862;49.462;11.054;2022-09-17T07:50:45;97279.56;;;10.82;100.00
19447;BME280;9862;49.462;11.054;2022-09-17T07:53:12;97281.88;;;10.90;100.00
19447;BME280;9862;49.462;11.054;2022-09-17T07:55:41;97294.03;;;10.86;100.00
19447;BME280;9862;49.462;11.054;2022-09-17T07:58:08;97288.97;;;11.08;100.00
19447;BME280;9862;49.462;11.054;2022-09-17T08:00:35;97306.56;;;11.09;100.00
19447;BME280;9862;49.462;11.054;2022-09-17T08:03:02;97308.88;;;10.94;100.00
19447;BME280;9862;49.462;11.054;2022-09-17T08:05:31;97311.38;;;10.77;100.00
19447;BME280;9862;49.462;11.054;2022-09-17T08:07:58;97311.13;;;10.78;100.00
19447;BME280;9862;49.462;11.054;2022-09-17T08:10:25;97311.94;;;10.79;100.00
19447;BME280;9862;49.462;11.054;2022-09-17T08:12:56;97317.16;;;10.74;100.00
19447;BME280;9862;49.462;11.054;2022-09-17T08:15:23;97310.44;;;10.71;100.00
19447;BME280;9862;49.462;11.054;2022-09-17T08:17:51;97314.59;;;10.79;100.00
19447;BME280;9862;49.462;11.054;2022-09-17T08:20:18;97316.47;;;10.78;100.00
19447;BME280;9862;49.462;11.054;2022-09-17T08:22:44;97328.72;;;10.79;100.00
19447;BME280;9862;49.462;11.054;2022-09-17T08:25:11;97332.44;;;10.78;100.00
19447;BME280;9862;49.462;11.054;2022-09-17T08:27:38;97329.09;;;10.83;100.00
19447;BME280;9862;49.462;11.054;2022-09-17T08:30:07;97329.19;;;10.76;100.00
19447;BME280;9862;49.462;11.054;2022-09-17T08:32:34;97320.88;;;10.84;100.00
19447;BME280;9862;49.462;11.054;2022-09-17T08:35:01;97335.00;;;10.85;100.00
19447;BME280;9862;49.462;11.054;2022-09-17T08:37:27;97325.63;;;10.82;100.00
19447;BME280;9862;49.462;11.054;2022-09-17T08:39:55;97326.28;;;10.78;100.00
19447;BME280;9862;49.462;11.054;2022-09-17T08:42:26;97331.06;;;10.87;100.00
19447;BME280;9862;49.462;11.054;2022-09-17T08:44:57;97334.13;;;11.03;100.00
19447;BME280;9862;49.462;11.054;2022-09-17T08:47:28;97341.41;;;11.07;100.00
19447;BME280;9862;49.462;11.054;2022-09-17T08:49:57;97338.97;;;11.06;100.00
19447;BME280;9862;49.462;11.054;2022-09-17T08:52:50;97348.25;;;11.15;100.00
19447;BME280;9862;49.462;11.054;2022-09-17T08:55:29;97354.97;;;11.17;100.00
19447;BME280;9862;49.462;11.054;2022-09-17T08:58:06;97358.69;;;11.28;100.00
19447;BME280;9862;49.462;11.054;2022-09-17T09:00:44;97367.06;;;11.43;100.00
19447;BME280;9862;49.462;11.054;2022-09-17T09:03:27;97374.03;;;11.44;100.00
19447;BME280;9862;49.462;11.054;2022-09-17T09:05:59;97382.81;;;11.57;100.00
19447;BME280;9862;49.462;11.054;2022-09-17T09:08:29;97386.53;;;11.56;100.00
19447;BME280;9862;49.462;11.054;2022-09-17T09:11:01;97393.16;;;11.65;100.00
19447;BME280;9862;49.462;11.054;2022-09-17T09:13:32;97387.63;;;11.78;100.00
19447;BME280;9862;49.462;11.054;2022-09-17T09:16:04;97404.28;;;11.62;100.00
19447;BME280;9862;49.462;11.054;2022-09-17T09:18:35;97404.63;;;11.54;100.00
19447;BME280;9862;49.462;11.054;2022-09-17T09:21:15;97399.91;;;11.79;100.00
19447;BME280;9862;49.462;11.054;2022-09-17T09:23:51;97400.16;;;12.01;100.00
19447;BME280;9862;49.462;11.054;2022-09-17T09:26:20;97408.25;;;11.94;100.00
19447;BME280;9862;49.462;11.054;2022-09-17T09:29:01;97409.06;;;11.83;100.00
19447;BME280;9862;49.462;11.054;2022-09-17T09:31:56;97419.25;;;11.86;100.00
19447;BME280;9862;49.462;11.054;2022-09-17T09:34:27;97414.31;;;11.90;100.00
19447;BME280;9862;49.462;11.054;2022-09-17T09:36:57;97412.44;;;11.90;100.00
19447;BME280;9862;49.462;11.054;2022-09-17T09:39:30;97430.06;;;11.91;100.00
19447;BME280;9862;49.462;11.054;2022-09-17T09:42:04;97436.91;;;12.11;100.00
19447;BME280;9862;49.462;11.054;2022-09-17T09:44:34;97435.84;;;12.23;100.00
19447;BME280;9862;49.462;11.054;2022-09-17T09:47:17;97427.50;;;12.20;100.00
19447;BME280;9862;49.462;11.054;2022-09-17T09:50:01;97441.09;;;12.07;100.00
19447;BME280;9862;49.462;11.054;2022-09-17T09:52:42;97436.44;;;11.90;100.00
19447;BME280;9862;49.462;11.054;2022-09-17T09:58:18;97432.25;;;12.18;100.00
19447;BME280;9862;49.462;11.054;2022-09-17T10:00:47;97441.97;;;12.24;100.00
19447;BME280;9862;49.462;11.054;2022-09-17T10:03:17;97442.22;;;12.11;100.00
19447;BME280;9862;49.462;11.054;2022-09-17T10:05:55;97450.09;;;12.06;100.00
19447;BME280;9862;49.462;11.054;2022-09-17T10:08:22;97444.34;;;11.97;100.00
19447;BME280;9862;49.462;11.054;2022-09-17T10:10:58;97435.06;;;11.99;100.00
19447;BME280;9862;49.462;11.054;2022-09-17T10:13:27;97441.19;;;12.00;100.00
19447;BME280;9862;49.462;11.054;2022-09-17T10:15:54;97419.97;;;12.17;100.00
19447;BME280;9862;49.462;11.054;2022-09-17T10:18:22;97442.13;;;12.17;100.00
19447;BME280;9862;49.462;11.054;2022-09-17T10:20:55;97429.91;;;12.33;100.00
19447;BME280;9862;49.462;11.054;2022-09-17T10:23:25;97445.00;;;12.39;100.00
19447;BME280;9862;49.462;11.054;2022-09-17T10:25:52;97442.53;;;12.49;100.00
19447;BME280;9862;49.462;11.054;2022-09-17T10:31:04;97460.72;;;12.76;100.00
19447;BME280;9862;49.462;11.054;2022-09-17T10:33:38;97462.53;;;12.87;100.00
19447;BME280;9862;49.462;11.054;2022-09-17T10:36:08;97464.84;;;12.95;100.00
19447;BME280;9862;49.462;11.054;2022-09-17T10:38:38;97482.19;;;13.09;100.00
19447;BME280;9862;49.462;11.054;2022-09-17T10:41:17;97489.81;;;13.17;100.00
19447;BME280;9862;49.462;11.054;2022-09-17T10:43:46;97487.69;;;13.03;100.00
19447;BME280;9862;49.462;11.054;2022-09-17T10:46:15;97487.06;;;13.12;100.00
19447;BME280;9862;49.462;11.054;2022-09-17T10:48:48;97483.97;;;12.92;100.00
19447;BME280;9862;49.462;11.054;2022-09-17T10:51:22;97489.72;;;12.84;100.00
19447;BME280;9862;49.462;11.054;2022-09-17T10:54:14;97492.09;;;12.97;100.00
19447;BME280;9862;49.462;11.054;2022-09-17T10:56:52;97491.63;;;13.00;100.00
19447;BME280;9862;49.462;11.054;2022-09-17T10:59:34;97492.88;;;13.09;100.00
19447;BME280;9862;49.462;11.054;2022-09-17T11:02:24;97494.25;;;13.24;100.00
19447;BME280;9862;49.462;11.054;2022-09-17T11:04:59;97485.88;;;13.32;100.00
19447;BME280;9862;49.462;11.054;2022-09-17T11:07:40;97480.72;;;13.59;100.00
19447;BME280;9862;49.462;11.054;2022-09-17T11:10:12;97485.53;;;13.73;100.00
19447;BME280;9862;49.462;11.054;2022-09-17T11:12:50;97478.97;;;13.81;100.00
19447;BME280;9862;49.462;11.054;2022-09-17T11:15:31;97471.31;;;13.56;100.00
19447;BME280;9862;49.462;11.054;2022-09-17T11:18:17;97468.88;;;13.55;100.00
19447;BME280;9862;49.462;11.054;2022-09-17T11:20:59;97475.03;;;13.55;100.00
19447;BME280;9862;49.462;11.054;2022-09-17T11:23:58;97502.44;;;13.79;100.00
19447;BME280;9862;49.462;11.054;2022-09-17T11:26:34;97497.75;;;13.86;100.00
19447;BME280;9862;49.462;11.054;2022-09-17T11:29:24;97490.16;;;13.95;100.00
19447;BME280;9862;49.462;11.054;2022-09-17T11:32:01;97492.00;;;14.11;100.00
19447;BME280;9862;49.462;11.054;2022-09-17T11:34:34;97493.38;;;13.97;100.00
19447;BME280;9862;49.462;11.054;2022-09-17T11:37:08;97494.94;;;14.10;100.00
19447;BME280;9862;49.462;11.054;2022-09-17T11:39:42;97512.38;;;14.12;100.00
19447;BME280;9862;49.462;11.054;2022-09-17T11:42:15;97512.94;;;14.14;100.00
19447;BME280;9862;49.462;11.054;2022-09-17T11:44:46;97521.09;;;14.24;100.00
19447;BME280;9862;49.462;11.054;2022-09-17T11:47:18;97509.28;;;14.20;100.00
19447;BME280;9862;49.462;11.054;2022-09-17T11:49:48;97513.97;;;14.13;100.00
19447;BME280;9862;49.462;11.054;2022-09-17T11:52:19;97513.31;;;14.23;100.00
19447;BME280;9862;49.462;11.054;2022-09-17T11:54:52;97502.63;;;14.06;100.00
19447;BME280;9862;49.462;11.054;2022-09-17T11:57:21;97489.00;;;14.24;100.00
19447;BME280;9862;49.462;11.054;2022-09-17T11:59:53;97489.97;;;14.18;100.00
19447;BME280;9862;49.462;11.054;2022-09-17T12:02:24;97495.81;;;13.98;100.00
19447;BME280;9862;49.462;11.054;2022-09-17T12:04:57;97496.56;;;13.94;100.00
19447;BME280;9862;49.462;11.054;2022-09-17T12:07:33;97488.53;;;13.94;100.00
19447;BME280;9862;49.462;11.054;2022-09-17T12:10:16;97508.13;;;13.83;100.00
19447;BME280;9862;49.462;11.054;2022-09-17T12:12:49;97478.81;;;13.71;100.00
19447;BME280;9862;49.462;11.054;2022-09-17T12:15:21;97457.56;;;13.19;100.00
19447;BME280;9862;49.462;11.054;2022-09-17T12:17:53;97432.34;;;12.86;100.00
19447;BME280;9862;49.462;11.054;2022-09-17T12:20:25;97419.13;;;12.80;100.00
19447;BME280;9862;49.462;11.054;2022-09-17T12:22:54;97405.19;;;12.78;100.00
19447;BME280;9862;49.462;11.054;2022-09-17T12:25:24;97377.06;;;12.87;100.00
19447;BME280;9862;49.462;11.054;2022-09-17T12:27:56;97339.69;;;12.87;100.00
19447;BME280;9862;49.462;11.054;2022-09-17T12:30:29;97342.63;;;12.74;100.00
19447;BME280;9862;49.462;11.054;2022-09-17T12:33:18;97333.00;;;12.73;100.00
19447;BME280;9862;49.462;11.054;2022-09-17T12:39:01;97348.94;;;12.96;100.00
19447;BME280;9862;49.462;11.054;2022-09-17T12:41:42;97323.81;;;13.26;100.00
19447;BME280;9862;49.462;11.054;2022-09-17T12:44:27;97320.41;;;13.47;100.00
19447;BME280;9862;49.462;11.054;2022-09-17T12:47:13;97305.56;;;13.56;100.00
19447;BME280;9862;49.462;11.054;2022-09-17T12:49:55;97305.06;;;13.59;100.00
19447;BME280;9862;49.462;11.054;2022-09-17T12:52:37;97318.75;;;13.63;100.00
19447;BME280;9862;49.462;11.054;2022-09-17T12:55:30;97344.22;;;13.32;100.00
19447;BME280;9862;49.462;11.054;2022-09-17T12:58:08;97337.34;;;13.36;100.00
19447;BME280;9862;49.462;11.054;2022-09-17T13:00:39;97320.63;;;13.45;100.00
19447;BME280;9862;49.462;11.054;2022-09-17T13:03:17;97328.25;;;13.54;100.00
19447;BME280;9862;49.462;11.054;2022-09-17T13:06:15;97337.97;;;13.43;100.00
19447;BME280;9862;49.462;11.054;2022-09-17T13:12:04;97352.38;;;13.75;100.00
19447;BME280;9862;49.462;11.054;2022-09-17T13:15:01;97363.56;;;13.72;100.00
19447;BME280;9862;49.462;11.054;2022-09-17T13:17:32;97372.56;;;13.66;100.00
19447;BME280;9862;49.462;11.054;2022-09-17T13:20:12;97391.00;;;13.85;100.00
19447;BME280;9862;49.462;11.054;2022-09-17T13:22:43;97393.94;;;13.83;100.00
19447;BME280;9862;49.462;11.054;2022-09-17T13:25:13;97410.28;;;13.87;100.00